F/V Billabong — FHGI — position and weather

sailwx.info

Track history (hours):
 
Tides and Currents Weather Stations Pressure Air Temp Water Temp Dewpoint Dewpoint Depression Visibility Wind Speed Wind Dir Waves Ship Positions

F/V Billabong

Last reported at 2017-Sep-25 05:19 UTC. Time now 2017-Sep-25 08:00 UTC.
Position N 47°26' W 003°55'.

Length 16 m.

Type: Fishing. MMSI: 228380000.

Date/timePositionNaut miles runAvg speedWind from/ knotsBaromVisibWave heightAir tempDewpointWater temp
2017-Sep-25 05:19N 47°26' W 003°55'4 8.7
2017-Sep-25 04:55N 47°27' W 003°51'3 8.6
2017-Sep-25 04:30N 47°29' W 003°46'4 8.7
2017-Sep-25 04:00N 47°30' W 003°40'4 8.6
2017-Sep-25 03:30N 47°32' W 003°34'4 8.6
2017-Sep-25 03:00N 47°34' W 003°28'4 8.3
2017-Sep-25 02:30N 47°36' W 003°23'4 8.4
2017-Sep-25 02:01N 47°40' W 003°22'4 7.7
2017-Sep-25 01:30N 47°44' W 003°22'  
2017-Sep-22 01:49N 47°26' W 003°54'1 4.1
2017-Sep-22 01:30N 47°26' W 003°56'2 3.6
2017-Sep-22 01:00N 47°24' W 003°56'4 1.8
2017-Sep-21 23:00N 47°26' W 003°60'2 3.5
2017-Sep-21 22:30N 47°26' W 003°57'2 3.9
2017-Sep-21 22:00N 47°24' W 003°56'4 3.3
2017-Sep-21 20:56N 47°23' W 003°51'4 3.8
2017-Sep-21 20:00N 47°25' W 003°47'4 7.7
2017-Sep-21 19:29N 47°26' W 003°42'1 2.6
2017-Sep-21 19:00N 47°27' W 003°40'2 3.6
2017-Sep-21 18:27N 47°29' W 003°39'2 3.8
2017-Sep-21 18:00N 47°30' W 003°37'2 3.6
2017-Sep-21 17:30N 47°32' W 003°38'2 3.4
2017-Sep-21 17:00N 47°32' W 003°41'2 3.6
2017-Sep-21 16:30N 47°30' W 003°42'2 3.6
2017-Sep-21 16:00N 47°28' W 003°42'2 3.7
2017-Sep-21 15:30N 47°27' W 003°43'4 8.1
2017-Sep-21 15:00N 47°24' W 003°48'8 3.4
2017-Sep-21 12:41N 47°26' W 003°60'1 3.1
2017-Sep-21 12:24N 47°26' W 003°58'1 3.7
2017-Sep-21 12:00N 47°25' W 003°57'5 3.0
2017-Sep-21 10:30N 47°23' W 003°51'15 2.9
2017-Sep-21 05:15N 47°31' W 003°32'1 3.6
2017-Sep-21 05:00N 47°32' W 003°32'1 2.7
2017-Sep-21 04:30N 47°33' W 003°30'4 7.6
2017-Sep-21 04:00N 47°34' W 003°25'3 6.4
2017-Sep-21 03:30N 47°37' W 003°23'4 7.8
2017-Sep-21 03:00N 47°41' W 003°22'3 5.3
2017-Sep-21 02:30N 47°44' W 003°22'0 0.0
2017-Sep-21 02:00N 47°44' W 003°22'0 0.4
2017-Sep-21 01:30N 47°44' W 003°22'0 0.1
2017-Sep-21 01:01N 47°44' W 003°22'5 9.2
2017-Sep-21 00:30N 47°39' W 003°22'5 9.2
2017-Sep-21 00:00N 47°35' W 003°23'5 9.2
2017-Sep-20 23:31N 47°31' W 003°26'12 0.7
2017-Sep-20 05:12N 47°26' W 003°43'0 2.2
2017-Sep-20 05:00N 47°27' W 003°44'15 0.7
2017-Sep-19 08:43N 47°35' W 004°02'2 1.0
2017-Sep-19 06:53N 47°33' W 004°02'2 4.2
2017-Sep-19 06:29N 47°32' W 003°60'4 4.3
2017-Sep-19 05:39N 47°31' W 003°55'1 4.2
2017-Sep-19 05:30N 47°31' W 003°54'3 5.3
2017-Sep-19 04:58N 47°32' W 003°50'4 9.4
2017-Sep-19 04:30N 47°34' W 003°44'5 9.4
2017-Sep-19 04:00N 47°36' W 003°38'5 9.1
2017-Sep-19 03:30N 47°39' W 003°33'4 8.8
2017-Sep-19 03:00N 47°40' W 003°27'4 8.5
2017-Sep-19 02:30N 47°43' W 003°22'1 1.6
2017-Sep-19 02:00N 47°44' W 003°22'0 0.0
2017-Sep-19 01:30N 47°44' W 003°22'0 0.0
2017-Sep-19 01:00N 47°44' W 003°22'2 3.1
2017-Sep-19 00:30N 47°42' W 003°22'5 9.5
2017-Sep-19 00:00N 47°38' W 003°22'5 9.4
2017-Sep-18 23:30N 47°33' W 003°24'17 2.4
2017-Sep-18 16:19N 47°31' W 003°50'1 3.9
2017-Sep-18 16:00N 47°31' W 003°51'2 4.1
2017-Sep-18 15:27N 47°31' W 003°54'1 3.0
2017-Sep-18 15:00N 47°31' W 003°56'2 3.5
2017-Sep-18 14:30N 47°30' W 003°55'2 3.8
2017-Sep-18 14:00N 47°29' W 003°52'2 2.9
2017-Sep-18 13:24N 47°30' W 003°53'3 4.0
2017-Sep-18 12:38N 47°31' W 003°57'1 4.3
2017-Sep-18 12:30N 47°31' W 003°58'1 2.9
2017-Sep-18 12:00N 47°30' W 003°56'2 3.4
2017-Sep-18 11:30N 47°29' W 003°54'2 2.7
2017-Sep-18 10:49N 47°30' W 003°52'3 4.0
2017-Sep-18 10:11N 47°31' W 003°55'2 4.0
2017-Sep-18 09:47N 47°32' W 003°57'1 3.1
2017-Sep-18 09:30N 47°31' W 003°58'2 4.0
2017-Sep-18 09:00N 47°30' W 003°56'1 2.4
2017-Sep-18 08:28N 47°30' W 003°54'4 2.4
2017-Sep-18 06:48N 47°32' W 003°58'1 4.1
2017-Sep-18 06:30N 47°32' W 003°56'2 4.0
2017-Sep-18 06:01N 47°31' W 003°54'2 4.0
2017-Sep-18 05:30N 47°31' W 003°51'2 4.4
2017-Sep-18 05:00N 47°32' W 003°48'25 0.5
2017-Sep-16 05:21N 47°12' W 003°25'3 9.0
2017-Sep-16 05:00N 47°16' W 003°25'4 8.7
2017-Sep-16 04:31N 47°20' W 003°23'4 8.8
2017-Sep-16 04:00N 47°24' W 003°23'4 8.9
2017-Sep-16 03:30N 47°29' W 003°23'5 9.0
2017-Sep-16 03:00N 47°33' W 003°23'5 9.1
2017-Sep-16 02:30N 47°38' W 003°22'5 9.5
2017-Sep-16 02:00N 47°42' W 003°22'1 2.8
2017-Sep-16 01:31N 47°44' W 003°22'0 0.0
2017-Sep-16 01:01N 47°44' W 003°22'3 5.5
2017-Sep-16 00:30N 47°41' W 003°22'4 8.8
2017-Sep-16 00:00N 47°37' W 003°22'13 2.3
2017-Sep-15 18:14N 47°35' W 003°42'1 3.7
2017-Sep-15 18:00N 47°34' W 003°42'2 3.7
2017-Sep-15 17:29N 47°33' W 003°45'2 3.7
2017-Sep-15 17:00N 47°32' W 003°47'2 3.7
2017-Sep-15 16:30N 47°31' W 003°49'2 3.9
2017-Sep-15 16:00N 47°30' W 003°52'5 2.8
2017-Sep-15 14:23N 47°32' W 003°58'1 0.5
2017-Sep-15 12:09N 47°32' W 003°56'1 4.5
2017-Sep-15 11:56N 47°31' W 003°57'1 2.0
2017-Sep-15 11:17N 47°31' W 003°55'1 3.7
2017-Sep-15 10:56N 47°31' W 003°53'1 2.3
2017-Sep-15 10:24N 47°32' W 003°53'2 4.0
2017-Sep-15 09:58N 47°33' W 003°56'2 4.1
2017-Sep-15 09:23N 47°32' W 003°59'  
Track history (hours):
 
Tides and Currents Weather Stations Pressure Air Temp Water Temp Dewpoint Dewpoint Depression Visibility Wind Speed Wind Dir Waves Ship Positions

F/V Billabong

Last reported at 2017-Sep-25 05:19 UTC. Time now 2017-Sep-25 08:00 UTC.
Position N 47°26' W 003°55'.

Length 16 m.

Type: Fishing. MMSI: 228380000.

Date/timePositionNaut miles runAvg speedWind from/ knotsBaromVisibWave heightAir tempDewpointWater temp
2017-Sep-25 05:19N 47°26' W 003°55'4 8.7
2017-Sep-25 04:55N 47°27' W 003°51'3 8.6
2017-Sep-25 04:30N 47°29' W 003°46'4 8.7
2017-Sep-25 04:00N 47°30' W 003°40'4 8.6
2017-Sep-25 03:30N 47°32' W 003°34'4 8.6
2017-Sep-25 03:00N 47°34' W 003°28'4 8.3
2017-Sep-25 02:30N 47°36' W 003°23'4 8.4
2017-Sep-25 02:01N 47°40' W 003°22'4 7.7
2017-Sep-25 01:30N 47°44' W 003°22'  
2017-Sep-22 01:49N 47°26' W 003°54'1 4.1
2017-Sep-22 01:30N 47°26' W 003°56'2 3.6
2017-Sep-22 01:00N 47°24' W 003°56'4 1.8
2017-Sep-21 23:00N 47°26' W 003°60'2 3.5
2017-Sep-21 22:30N 47°26' W 003°57'2 3.9
2017-Sep-21 22:00N 47°24' W 003°56'4 3.3
2017-Sep-21 20:56N 47°23' W 003°51'4 3.8
2017-Sep-21 20:00N 47°25' W 003°47'4 7.7
2017-Sep-21 19:29N 47°26' W 003°42'1 2.6
2017-Sep-21 19:00N 47°27' W 003°40'2 3.6
2017-Sep-21 18:27N 47°29' W 003°39'2 3.8
2017-Sep-21 18:00N 47°30' W 003°37'2 3.6
2017-Sep-21 17:30N 47°32' W 003°38'2 3.4
2017-Sep-21 17:00N 47°32' W 003°41'2 3.6
2017-Sep-21 16:30N 47°30' W 003°42'2 3.6
2017-Sep-21 16:00N 47°28' W 003°42'2 3.7
2017-Sep-21 15:30N 47°27' W 003°43'4 8.1
2017-Sep-21 15:00N 47°24' W 003°48'8 3.4
2017-Sep-21 12:41N 47°26' W 003°60'1 3.1
2017-Sep-21 12:24N 47°26' W 003°58'1 3.7
2017-Sep-21 12:00N 47°25' W 003°57'5 3.0
2017-Sep-21 10:30N 47°23' W 003°51'15 2.9
2017-Sep-21 05:15N 47°31' W 003°32'1 3.6
2017-Sep-21 05:00N 47°32' W 003°32'1 2.7
2017-Sep-21 04:30N 47°33' W 003°30'4 7.6
2017-Sep-21 04:00N 47°34' W 003°25'3 6.4
2017-Sep-21 03:30N 47°37' W 003°23'4 7.8
2017-Sep-21 03:00N 47°41' W 003°22'3 5.3
2017-Sep-21 02:30N 47°44' W 003°22'0 0.0
2017-Sep-21 02:00N 47°44' W 003°22'0 0.4
2017-Sep-21 01:30N 47°44' W 003°22'0 0.1
2017-Sep-21 01:01N 47°44' W 003°22'5 9.2
2017-Sep-21 00:30N 47°39' W 003°22'5 9.2
2017-Sep-21 00:00N 47°35' W 003°23'5 9.2
2017-Sep-20 23:31N 47°31' W 003°26'12 0.7
2017-Sep-20 05:12N 47°26' W 003°43'0 2.2
2017-Sep-20 05:00N 47°27' W 003°44'15 0.7
2017-Sep-19 08:43N 47°35' W 004°02'2 1.0
2017-Sep-19 06:53N 47°33' W 004°02'2 4.2
2017-Sep-19 06:29N 47°32' W 003°60'4 4.3
2017-Sep-19 05:39N 47°31' W 003°55'1 4.2
2017-Sep-19 05:30N 47°31' W 003°54'3 5.3
2017-Sep-19 04:58N 47°32' W 003°50'4 9.4
2017-Sep-19 04:30N 47°34' W 003°44'5 9.4
2017-Sep-19 04:00N 47°36' W 003°38'5 9.1
2017-Sep-19 03:30N 47°39' W 003°33'4 8.8
2017-Sep-19 03:00N 47°40' W 003°27'4 8.5
2017-Sep-19 02:30N 47°43' W 003°22'1 1.6
2017-Sep-19 02:00N 47°44' W 003°22'0 0.0
2017-Sep-19 01:30N 47°44' W 003°22'0 0.0
2017-Sep-19 01:00N 47°44' W 003°22'2 3.1
2017-Sep-19 00:30N 47°42' W 003°22'5 9.5
2017-Sep-19 00:00N 47°38' W 003°22'5 9.4
2017-Sep-18 23:30N 47°33' W 003°24'17 2.4
2017-Sep-18 16:19N 47°31' W 003°50'1 3.9
2017-Sep-18 16:00N 47°31' W 003°51'2 4.1
2017-Sep-18 15:27N 47°31' W 003°54'1 3.0
2017-Sep-18 15:00N 47°31' W 003°56'2 3.5
2017-Sep-18 14:30N 47°30' W 003°55'2 3.8
2017-Sep-18 14:00N 47°29' W 003°52'2 2.9
2017-Sep-18 13:24N 47°30' W 003°53'3 4.0
2017-Sep-18 12:38N 47°31' W 003°57'1 4.3
2017-Sep-18 12:30N 47°31' W 003°58'1 2.9
2017-Sep-18 12:00N 47°30' W 003°56'2 3.4
2017-Sep-18 11:30N 47°29' W 003°54'2 2.7
2017-Sep-18 10:49N 47°30' W 003°52'3 4.0
2017-Sep-18 10:11N 47°31' W 003°55'2 4.0
2017-Sep-18 09:47N 47°32' W 003°57'1 3.1
2017-Sep-18 09:30N 47°31' W 003°58'2 4.0
2017-Sep-18 09:00N 47°30' W 003°56'1 2.4
2017-Sep-18 08:28N 47°30' W 003°54'4 2.4
2017-Sep-18 06:48N 47°32' W 003°58'1 4.1
2017-Sep-18 06:30N 47°32' W 003°56'2 4.0
2017-Sep-18 06:01N 47°31' W 003°54'2 4.0
2017-Sep-18 05:30N 47°31' W 003°51'2 4.4
2017-Sep-18 05:00N 47°32' W 003°48'25 0.5
2017-Sep-16 05:21N 47°12' W 003°25'3 9.0
2017-Sep-16 05:00N 47°16' W 003°25'4 8.7
2017-Sep-16 04:31N 47°20' W 003°23'4 8.8
2017-Sep-16 04:00N 47°24' W 003°23'4 8.9
2017-Sep-16 03:30N 47°29' W 003°23'5 9.0
2017-Sep-16 03:00N 47°33' W 003°23'5 9.1
2017-Sep-16 02:30N 47°38' W 003°22'5 9.5
2017-Sep-16 02:00N 47°42' W 003°22'1 2.8
2017-Sep-16 01:31N 47°44' W 003°22'0 0.0
2017-Sep-16 01:01N 47°44' W 003°22'3 5.5
2017-Sep-16 00:30N 47°41' W 003°22'4 8.8
2017-Sep-16 00:00N 47°37' W 003°22'13 2.3
2017-Sep-15 18:14N 47°35' W 003°42'1 3.7
2017-Sep-15 18:00N 47°34' W 003°42'2 3.7
2017-Sep-15 17:29N 47°33' W 003°45'2 3.7
2017-Sep-15 17:00N 47°32' W 003°47'2 3.7
2017-Sep-15 16:30N 47°31' W 003°49'2 3.9
2017-Sep-15 16:00N 47°30' W 003°52'5 2.8
2017-Sep-15 14:23N 47°32' W 003°58'1 0.5
2017-Sep-15 12:09N 47°32' W 003°56'1 4.5
2017-Sep-15 11:56N 47°31' W 003°57'1 2.0
2017-Sep-15 11:17N 47°31' W 003°55'1 3.7
2017-Sep-15 10:56N 47°31' W 003°53'1 2.3
2017-Sep-15 10:24N 47°32' W 003°53'2 4.0
2017-Sep-15 09:58N 47°33' W 003°56'2 4.1
2017-Sep-15 09:23N 47°32' W 003°59'  

Dump ship's entire track history